LKPRLKMT

Guest
Details From LKPR - Ruzyne
To LKMT - Mosnov
Flight Number -
Tags Generated
Created
Modified
Stats Distance 150 nm / 278 km
Max Altitude 0 ft / 0 m
Waypoints 2
Social Downloads 5
Likes 0
Share VATSIM

Download

Looking for another format? Having issues loading an existing format? Contact us
Advertisement - Login to hide

Notes

Generated

Route

LKPR LKMT

ID Type Via Altitude Latitude Longitude Leg Dist Tot Dist Heading (true) Name
O LKPR APT - 0 ft / 0 m 50.08771˚ 14.26668˚ - 0 nm - -
O LKMT APT - 0 ft / 0 m 49.68532˚ 18.09325˚ 150 nm 150 nm 98° / 101° -

Altitude Profile

Advertisement - Login to hide

LKPR

Details ICAO LKPR (PRG)
Name Praha - Ruzyne
Region Czech Republic
Timezone Europe/Prague (UTC+1.0)
Stats Elevation 1,246 ft / 380 m (AMSL)
Location 50.101144° 14.262963°
Runways 3
Magnetic Variation 3.861° E

METAR

LKPR 112100Z 24007KT CAVOK 01/00 Q0987 NOSIG

Decode

TAF

TAF LKPR 111700Z 1118/1300 19012KT CAVOK BECMG 1122/1201 25018KT TEMPO 1200/1206 8000 -SHRA BKN020 TEMPO 1201/1222 22020G34KT PROB30 TEMPO 1207/1213 23024G40KT

Decode

Departure Runways

ID Width Length Bearing (true) Bearing (mag) Surface Threshold Offset Overrun Length
04 197 ft / 60 m 6,932 ft / 2,113 m 36.80° 32.94° Asphalt 0 ft / 0 m 0 ft / 0 m
06 148 ft / 45 m 12,160 ft / 3,706 m 64.92° 61.06° Concrete 0 ft / 0 m 0 ft / 0 m
12 148 ft / 45 m 10,622 ft / 3,238 m 126.99° 123.13° Concrete 0 ft / 0 m 0 ft / 0 m
22 197 ft / 60 m 6,932 ft / 2,113 m 216.81° 212.95° Asphalt 0 ft / 0 m 591 ft / 180 m
24 148 ft / 45 m 12,160 ft / 3,706 m 244.96° 241.10° Concrete 0 ft / 0 m 0 ft / 0 m
30 148 ft / 45 m 10,622 ft / 3,238 m 307.01° 303.15° Concrete 0 ft / 0 m 0 ft / 0 m

LKMT

Details ICAO LKMT (OSR)
Name Ostrava Mosnov
Region Czech Republic
Timezone Europe/Prague (UTC+1.0)
Stats Elevation 843 ft / 257 m (AMSL)
Location 49.696217° 18.110855°
Runways 1
Magnetic Variation 4.763° E

METAR

LKMT 112100Z 19020G31KT 160V220 9999 FEW037 12/05 Q0992 NOSIG

Decode

TAF

TAF LKMT 111700Z 1118/1300 20020KT CAVOK TEMPO 1118/1210 22026G44KT PROB30 TEMPO 1122/1207 21028G54KT TEMPO 1207/1215 7000 SHRA BKN013 BECMG 1210/1212 24012KT TEMPO 1212/1220 25014G24KT

Decode

Destination Runways

ID Width Length Bearing (true) Bearing (mag) Surface Threshold Offset Overrun Length
04 207 ft / 63 m 11,532 ft / 3,515 m 46.29° 41.53° Concrete 0 ft / 0 m 52 ft / 16 m
22 207 ft / 63 m 11,532 ft / 3,515 m 226.31° 221.55° Concrete 0 ft / 0 m 49 ft / 15 m

Approach Navaids

Runway Type Ident Frequency Range Bearing (true) Bearing (mag) Slope Elevation
22 Localiser OSV 110.95 MHz 18 nm / 33 km 226.26° 221.50° - 807 ft / 246 m (AMSL)
22 Glidescope OSV 110.95 MHz 10 nm / 19 km 226.30° 221.54° 3.00° 807 ft / 246 m (AMSL)
22 DME OSV 110.95 MHz 18 nm / 33 km - - - 824 ft / 251 m (AMSL)

Popular Alternatives